Time;durP1;ratioP1;P1;durP2;ratioP2;P2;SDS_P1;SDS_P2;PMS_P1;PMS_P2;Temp;Humidity;BMP_temperature;BMP_pressure;BME280_temperature;BME280_humidity;BME280_pressure;Samples;Min_cycle;Max_cycle;Signal;HPM_P1;HPM_P2
2022/01/18 00:00:47;;;;;;;30.83;5.25;;;;;;;0.34;100.00;103963.28;5076523;28;20059;-80
2022/01/18 00:03:14;;;;;;;24.85;5.20;;;;;;;0.30;100.00;103959.78;5076302;28;20074;-81
2022/01/18 00:05:43;;;;;;;27.55;3.95;;;;;;;0.24;100.00;103962.38;5080484;28;20036;-81
2022/01/18 00:08:08;;;;;;;30.75;5.47;;;;;;;0.20;100.00;103960.63;5076296;28;20028;-81
2022/01/18 00:10:34;;;;;;;38.72;5.30;;;;;;;0.22;100.00;103964.09;5074534;28;20032;-80
2022/01/18 00:18:28;;;;;;;23.88;4.13;;;;;;;0.30;100.00;103970.25;5003179;28;20062;-79
2022/01/18 00:23:27;;;;;;;38.17;6.03;;;;;;;0.35;100.00;103975.50;5075587;28;20385;-80
2022/01/18 00:25:56;;;;;;;20.88;4.43;;;;;;;0.33;100.00;103974.63;5075141;28;20111;-79
2022/01/18 00:28:23;;;;;;;25.25;5.10;;;;;;;0.30;100.00;103983.34;5075322;28;20036;-80
2022/01/18 00:33:37;;;;;;;26.88;4.47;;;;;;;0.25;100.00;103981.59;5075163;28;20068;-80
2022/01/18 00:36:05;;;;;;;22.60;4.40;;;;;;;0.25;100.00;103985.06;5074943;28;20520;-80
2022/01/18 00:38:43;;;;;;;31.27;3.85;;;;;;;0.25;100.00;103984.19;5073650;28;20055;-80
2022/01/18 00:41:10;;;;;;;27.60;4.32;;;;;;;0.29;100.00;103983.34;5075060;28;20064;-80
2022/01/18 00:43:35;;;;;;;25.65;4.50;;;;;;;0.27;100.00;103978.09;5074705;28;20052;-81
2022/01/18 00:46:01;;;;;;;23.52;3.70;;;;;;;0.26;100.00;103978.97;5074518;28;20112;-79
2022/01/18 00:48:26;;;;;;;29.77;4.70;;;;;;;0.32;100.00;103986.84;5074489;28;20032;-80
2022/01/18 00:50:53;;;;;;;24.98;4.25;;;;;;;0.32;100.00;103978.97;5074564;28;20124;-80
2022/01/18 00:53:20;;;;;;;27.15;4.28;;;;;;;0.32;100.00;103980.75;5073999;28;20037;-79
2022/01/18 00:55:59;;;;;;;29.02;4.15;;;;;;;0.31;100.00;103982.50;5074185;28;20119;-80
2022/01/18 00:58:24;;;;;;;27.10;3.75;;;;;;;0.38;100.00;103977.25;5074307;28;20060;-79
2022/01/18 01:00:51;;;;;;;20.98;3.78;;;;;;;0.42;100.00;103977.28;5074228;28;20064;-80
2022/01/18 01:03:16;;;;;;;23.83;4.13;;;;;;;0.45;100.00;103982.53;5074146;28;20036;-80
2022/01/18 01:05:41;;;;;;;20.58;3.40;;;;;;;0.50;100.00;103980.78;5074759;28;20085;-80
2022/01/18 01:08:07;;;;;;;27.98;4.07;;;;;;;0.52;100.00;103972.91;5073915;28;20120;-79
2022/01/18 01:10:33;;;;;;;25.98;3.45;;;;;;;0.52;100.00;103979.03;5073857;28;20039;-80
2022/01/18 01:12:59;;;;;;;36.97;5.10;;;;;;;0.54;100.00;103976.44;5072817;28;20037;-80
2022/01/18 01:15:27;;;;;;;18.67;3.20;;;;;;;0.50;100.00;103972.03;5074133;28;20463;-80
2022/01/18 01:32:24;;;;;;;38.85;4.93;;;;;;;0.90;100.00;103966.84;5073915;28;20063;-80
2022/01/18 01:44:56;;;;;;;24.92;3.70;;;;;;;0.64;100.00;103962.47;5082860;28;20059;-81
2022/01/18 01:47:33;;;;;;;23.17;4.07;;;;;;;0.58;100.00;103957.19;5074369;28;20032;-80
2022/01/18 01:50:00;;;;;;;22.90;3.90;;;;;;;0.56;100.00;103966.81;5073680;28;20040;-80
2022/01/18 01:52:26;;;;;;;26.00;4.72;;;;;;;0.55;100.00;103969.44;5073447;28;20038;-79
2022/01/18 01:54:53;;;;;;;16.48;3.30;;;;;;;0.55;100.00;103969.44;5073197;28;20451;-80
2022/01/18 01:57:19;;;;;;;13.70;3.28;;;;;;;0.51;100.00;103973.81;5072522;28;20476;-79
2022/01/18 01:59:44;;;;;;;20.58;3.22;;;;;;;0.47;100.00;103970.28;5072753;28;20107;-79
2022/01/18 02:02:10;;;;;;;20.58;3.35;;;;;;;0.43;100.00;103975.53;5073602;28;20040;-77
2022/01/18 02:04:35;;;;;;;18.38;3.75;;;;;;;0.39;100.00;103973.75;5073941;28;20032;-79
2022/01/18 02:07:01;;;;;;;15.80;2.90;;;;;;;0.35;100.00;103976.38;5073486;28;20035;-80
2022/01/18 02:09:26;;;;;;;29.75;5.03;;;;;;;0.31;100.00;103974.63;5072240;28;20123;-79
2022/01/18 02:11:55;;;;;;;19.05;4.22;;;;;;;0.28;100.00;103965.88;5073641;28;20029;-82
2022/01/18 02:14:22;;;;;;;17.38;3.42;;;;;;;0.26;100.00;103970.25;5073285;28;20035;-81
2022/01/18 02:22:16;;;;;;;21.63;3.90;;;;;;;0.14;100.00;103961.47;5072837;28;20091;-80
2022/01/18 02:24:42;;;;;;;17.50;3.33;;;;;;;0.12;100.00;103965.84;5073151;28;20029;-81
2022/01/18 02:27:07;;;;;;;19.75;3.28;;;;;;;0.05;100.00;103969.28;5072952;28;20024;-81
2022/01/18 02:29:33;;;;;;;19.70;3.33;;;;;;;0.00;100.00;103965.81;5072317;28;20056;-81
2022/01/18 02:31:58;;;;;;;23.10;3.13;;;;;;;-0.04;100.00;103971.88;5073645;28;20113;-80
2022/01/18 02:34:24;;;;;;;14.90;3.10;;;;;;;-0.12;100.00;103969.25;5071830;28;20028;-81
2022/01/18 02:36:53;;;;;;;17.50;3.40;;;;;;;-0.13;100.00;103966.63;5074859;28;20033;-81
2022/01/18 02:39:21;;;;;;;21.27;3.15;;;;;;;-0.12;100.00;103973.56;5077088;28;20029;-80
2022/01/18 02:42:05;;;;;;;10.57;3.22;;;;;;;-0.13;100.00;103964.84;5075783;28;20037;-80
2022/01/18 02:44:32;;;;;;;13.70;3.00;;;;;;;-0.09;100.00;103970.97;5076879;28;20045;-82
2022/01/18 02:46:58;;;;;;;17.90;2.80;;;;;;;-0.10;100.00;103958.78;5075478;28;20109;-82
2022/01/18 02:49:24;;;;;;;19.17;3.60;;;;;;;-0.09;100.00;103965.72;5077251;28;20437;-79
2022/01/18 02:51:50;;;;;;;24.50;3.47;;;;;;;-0.09;100.00;103960.50;5076323;28;20594;-79
2022/01/18 02:54:17;;;;;;;31.65;3.95;;;;;;;-0.12;100.00;103968.34;5075382;28;20032;-79
2022/01/18 02:56:54;;;;;;;16.77;3.35;;;;;;;-0.19;100.00;103965.69;5077052;28;20101;-80
2022/01/18 02:59:32;;;;;;;24.10;3.88;;;;;;;-0.21;100.00;103972.69;5076858;28;20158;-78
2022/01/18 03:04:44;;;;;;;24.02;4.05;;;;;;;-0.17;100.00;103964.84;5076616;28;20035;-80
2022/01/18 03:07:11;;;;;;;13.35;3.13;;;;;;;-0.16;100.00;103963.94;5077175;28;20048;-79
2022/01/18 03:09:37;;;;;;;20.55;3.20;;;;;;;-0.16;100.00;103958.72;5076537;28;20103;-79
2022/01/18 03:12:03;;;;;;;15.63;2.53;;;;;;;-0.16;100.00;103956.09;5076534;28;20461;-80
2022/01/18 03:14:29;;;;;;;17.23;3.15;;;;;;;-0.16;100.00;103959.63;5076244;28;20152;-80
2022/01/18 03:16:54;;;;;;;22.75;3.85;;;;;;;-0.14;100.00;103959.63;5075707;28;20078;-81
2022/01/18 03:19:20;;;;;;;11.02;2.55;;;;;;;-0.15;100.00;103964.00;5076250;28;20029;-78
2022/01/18 03:21:45;;;;;;;18.38;3.30;;;;;;;-0.18;100.00;103961.31;5076263;28;20044;-80
2022/01/18 03:24:31;;;;;;;12.38;2.67;;;;;;;-0.22;100.00;103952.59;5076164;28;20457;-81
2022/01/18 03:29:40;;;;;;;13.25;2.55;;;;;;;-0.23;100.00;103960.44;5075824;28;20047;-81
2022/01/18 03:32:06;;;;;;;11.45;2.63;;;;;;;-0.27;100.00;103964.81;5076150;28;20024;-80
2022/01/18 03:34:32;;;;;;;10.15;2.70;;;;;;;-0.28;100.00;103967.41;5075795;28;20040;-81
2022/01/18 03:36:57;;;;;;;11.43;2.60;;;;;;;-0.30;100.00;103969.13;5075997;28;20106;-81
2022/01/18 03:39:22;;;;;;;15.88;3.42;;;;;;;-0.36;100.00;103963.00;5075907;28;20044;-78
2022/01/18 03:41:54;;;;;;;17.50;3.35;;;;;;;-0.44;100.00;103956.84;5075814;28;20029;-81
2022/01/18 03:44:22;;;;;;;;;;;;;;;-0.51;100.00;103949.81;5076629;28;20139;-80
2022/01/18 03:46:47;;;;;;;10.02;2.58;;;;;;;-0.57;100.00;103960.25;5075928;28;19912;-81
2022/01/18 03:49:13;;;;;;;15.85;3.20;;;;;;;-0.63;100.00;103973.28;5076642;28;20023;-82
2022/01/18 03:51:39;;;;;;;9.52;2.10;;;;;;;-0.73;100.00;103968.00;5075969;28;20048;-81
2022/01/18 03:54:04;;;;;;;14.45;2.88;;;;;;;-0.77;100.00;103970.59;5075730;28;20457;-81
2022/01/18 03:56:29;;;;;;;14.35;2.80;;;;;;;-0.80;100.00;103976.66;5076313;28;20036;-81
2022/01/18 03:58:55;;;;;;;14.25;3.35;;;;;;;-0.84;100.00;103969.66;5076003;28;20033;-81
2022/01/18 04:01:20;;;;;;;19.42;3.03;;;;;;;-0.83;100.00;103967.94;5075674;28;20035;-81
2022/01/18 04:03:47;;;;;;;8.05;2.47;;;;;;;-0.86;100.00;103968.78;5076106;28;20100;-81
2022/01/18 04:06:12;;;;;;;23.45;3.58;;;;;;;-0.85;100.00;103978.38;5074928;28;20108;-82
2022/01/18 04:08:37;;;;;;;24.70;3.90;;;;;;;-0.83;100.00;103971.41;5076008;28;20060;-81
2022/01/18 04:11:03;;;;;;;24.05;4.38;;;;;;;-0.80;100.00;103983.66;5075834;28;20413;-82
2022/01/18 04:13:28;;;;;;;20.65;3.80;;;;;;;-0.77;100.00;103984.53;5075555;28;20033;-79
2022/01/18 04:15:54;;;;;;;26.48;4.07;;;;;;;-0.71;100.00;104000.25;5075476;28;20439;-82
2022/01/18 04:18:35;;;;;;;17.92;3.88;;;;;;;-0.63;100.00;103989.00;5074040;28;20059;-83
2022/01/18 04:28:58;;;;;;;16.80;3.67;;;;;;;-0.41;100.00;103997.84;5075779;28;20036;-83
2022/01/18 04:31:25;;;;;;;21.10;3.88;;;;;;;-0.39;100.00;103994.41;5075269;28;20039;-83
2022/01/18 04:33:51;;;;;;;14.32;3.95;;;;;;;-0.37;100.00;103984.81;5074742;28;20033;-83
2022/01/18 04:36:17;;;;;;;16.17;3.63;;;;;;;-0.36;100.00;103989.19;5075655;28;20419;-83
2022/01/18 04:38:42;;;;;;;19.80;4.35;;;;;;;-0.33;100.00;104001.38;5075299;28;20032;-83
2022/01/18 04:41:12;;;;;;;27.85;4.43;;;;;;;-0.30;100.00;103996.19;5075254;28;20031;-82
2022/01/18 04:44:05;;;;;;;22.80;4.63;;;;;;;-0.28;100.00;104002.31;5074653;28;20083;-83
2022/01/18 04:49:15;;;;;;;10.90;3.67;;;;;;;-0.26;100.00;103995.31;5075210;28;20052;-83
2022/01/18 04:51:41;;;;;;;19.92;3.85;;;;;;;-0.26;100.00;103984.84;5074781;28;20078;-83
2022/01/18 04:54:08;;;;;;;16.35;4.20;;;;;;;-0.24;100.00;103987.47;5074616;28;20031;-83
2022/01/18 04:59:01;;;;;;;16.23;4.50;;;;;;;-0.24;100.00;103985.75;5074815;28;20377;-83
2022/01/18 05:01:26;;;;;;;22.25;4.18;;;;;;;-0.23;100.00;103991.84;5075086;28;20453;-83
2022/01/18 05:03:51;;;;;;;18.13;4.53;;;;;;;-0.22;100.00;103994.47;5074349;28;20029;-84
2022/01/18 05:06:19;;;;;;;21.65;5.20;;;;;;;-0.19;100.00;103999.72;5074185;28;20032;-83
2022/01/18 05:08:46;;;;;;;20.83;4.60;;;;;;;-0.17;100.00;103997.13;5074186;28;20029;-83
2022/01/18 05:11:15;;;;;;;13.20;4.82;;;;;;;-0.17;100.00;104002.34;5074417;28;20098;-83
2022/01/18 05:16:45;;;;;;;13.85;4.85;;;;;;;-0.15;100.00;104003.25;5075075;28;20086;-83
2022/01/18 05:24:32;;;;;;;13.15;4.68;;;;;;;-0.10;100.00;103987.56;5082246;28;20075;-83
2022/01/18 05:26:59;;;;;;;14.27;5.60;;;;;;;-0.09;100.00;103987.56;5082710;28;20389;-82
2022/01/18 05:29:25;;;;;;;12.80;5.25;;;;;;;-0.09;100.00;103989.28;5073904;28;20031;-83
2022/01/18 05:31:51;;;;;;;8.57;4.15;;;;;;;-0.08;100.00;103984.06;5073478;28;20028;-82
2022/01/18 05:34:16;;;;;;;13.88;4.80;;;;;;;-0.05;100.00;103986.69;5074075;28;20466;-83
2022/01/18 05:36:42;;;;;;;13.77;5.30;;;;;;;-0.02;100.00;103983.22;5075480;28;20042;-83
2022/01/18 05:39:09;;;;;;;10.27;5.00;;;;;;;-0.02;100.00;103980.59;5076150;28;20036;-82
2022/01/18 05:41:36;;;;;;;11.32;4.60;;;;;;;-0.04;100.00;103975.38;5074575;28;20111;-82
2022/01/18 05:44:02;;;;;;;24.50;5.80;;;;;;;-0.06;100.00;103987.59;5074237;28;20052;-83
2022/01/18 05:46:28;;;;;;;16.13;5.35;;;;;;;-0.12;100.00;103991.91;5075394;28;20070;-83
2022/01/18 05:48:53;;;;;;;10.77;5.13;;;;;;;-0.19;100.00;103991.00;5075337;28;20469;-83
2022/01/18 05:51:19;;;;;;;11.15;5.28;;;;;;;-0.26;100.00;103986.59;5076967;28;20036;-82
2022/01/18 05:53:44;;;;;;;11.20;4.85;;;;;;;-0.32;100.00;103991.81;5084507;28;20461;-81
2022/01/18 05:56:11;;;;;;;10.70;5.13;;;;;;;-0.38;100.00;103992.63;5088296;28;20082;-82
2022/01/18 05:58:44;;;;;;;9.65;4.78;;;;;;;-0.44;100.00;103990.84;5088549;28;20028;-82
2022/01/18 06:01:13;;;;;;;10.32;5.00;;;;;;;-0.48;100.00;103989.06;5074840;28;20028;-82
2022/01/18 06:09:10;;;;;;;12.55;5.07;;;;;;;-0.69;100.00;103995.03;5073535;28;20146;-81
2022/01/18 06:11:35;;;;;;;12.48;5.75;;;;;;;-0.75;100.00;103993.28;5071630;28;20072;-79
2022/01/18 06:14:00;;;;;;;15.35;5.43;;;;;;;-0.80;100.00;103984.50;5073428;28;20082;-81
2022/01/18 06:16:26;;;;;;;12.35;5.20;;;;;;;-0.83;100.00;103984.50;5072944;28;20041;-80
2022/01/18 06:18:53;;;;;;;11.57;5.18;;;;;;;-0.85;100.00;103974.88;5073070;28;20025;-79
2022/01/18 06:21:19;;;;;;;13.05;5.25;;;;;;;-0.89;100.00;103974.84;5071850;28;20115;-78
2022/01/18 06:23:44;;;;;;;14.05;4.95;;;;;;;-0.91;100.00;103975.69;5073253;28;20080;-83
2022/01/18 06:26:15;;;;;;;13.55;5.32;;;;;;;-0.92;100.00;103976.59;5072937;28;20037;-80
2022/01/18 06:28:40;;;;;;;15.50;5.00;;;;;;;-0.94;100.00;103979.19;5072356;28;20029;-79
2022/01/18 06:31:06;;;;;;;10.80;4.55;;;;;;;-0.95;100.00;103982.66;5072907;28;20042;-81
2022/01/18 06:33:31;;;;;;;12.23;4.78;;;;;;;-0.93;100.00;103982.66;5072189;28;20439;-81
2022/01/18 06:35:56;;;;;;;22.13;5.45;;;;;;;-0.92;100.00;103984.44;5075196;28;20035;-81
2022/01/18 06:38:22;;;;;;;14.00;5.22;;;;;;;-0.91;100.00;103983.53;5078684;28;20055;-82
2022/01/18 06:40:49;;;;;;;18.38;6.03;;;;;;;-0.90;100.00;103983.59;5076384;28;20036;-83
2022/01/18 06:43:15;;;;;;;21.08;5.57;;;;;;;-0.90;100.00;103980.97;5073321;28;20126;-82
2022/01/18 06:45:41;;;;;;;17.63;5.93;;;;;;;-0.89;100.00;103989.69;5072707;28;20039;-83
2022/01/18 06:48:07;;;;;;;21.02;6.43;;;;;;;-0.91;100.00;103989.66;5076795;28;20028;-82
2022/01/18 06:50:33;;;;;;;16.73;5.97;;;;;;;-0.97;100.00;103989.63;5076386;28;20028;-83
2022/01/18 06:52:59;;;;;;;25.80;6.70;;;;;;;-0.99;100.00;103985.22;5073146;28;20110;-79
2022/01/18 06:55:25;;;;;;;21.38;6.47;;;;;;;-1.03;100.00;103992.19;5072526;28;20083;-79
2022/01/18 06:57:51;;;;;;;25.77;7.25;;;;;;;-1.04;100.00;103990.44;5072649;28;20033;-79
2022/01/18 07:00:16;;;;;;;21.55;6.97;;;;;;;-1.03;100.00;103983.44;5072812;28;20038;-77
2022/01/18 07:02:42;;;;;;;22.73;8.23;;;;;;;-1.03;100.00;103980.84;5073009;28;20032;-79
2022/01/18 07:05:08;;;;;;;23.40;7.65;;;;;;;-1.02;100.00;103983.47;5072274;28;20422;-77
2022/01/18 07:07:33;;;;;;;27.92;8.05;;;;;;;-1.05;100.00;103986.03;5072651;28;20123;-82
2022/01/18 07:09:59;;;;;;;29.13;10.40;;;;;;;-1.11;100.00;103988.59;5071114;28;20036;-81
2022/01/18 07:12:25;;;;;;;21.15;8.25;;;;;;;-1.15;100.00;103990.34;5072860;28;20468;-80
2022/01/18 07:14:51;;;;;;;24.10;8.80;;;;;;;-1.18;100.00;103995.53;5071654;28;20056;-77
2022/01/18 07:17:16;;;;;;;19.08;7.47;;;;;;;-1.23;100.00;103983.28;5071340;28;20035;-81
2022/01/18 07:19:42;;;;;;;17.98;7.72;;;;;;;-1.26;100.00;103990.22;5071638;28;20035;-82
2022/01/18 07:22:07;;;;;;;17.58;6.75;;;;;;;-1.28;100.00;103991.09;5074420;28;20360;-81
2022/01/18 07:24:39;;;;;;;21.08;6.57;;;;;;;-1.29;100.00;103991.94;5076350;28;20456;-81
2022/01/18 07:27:06;;;;;;;18.02;7.30;;;;;;;-1.29;100.00;103994.53;5076418;28;20162;-80
2022/01/18 07:29:31;;;;;;;27.98;8.88;;;;;;;-1.27;100.00;104000.66;5076231;28;20035;-80
2022/01/18 07:31:57;;;;;;;21.02;8.25;;;;;;;-1.24;100.00;103995.44;5076572;28;20029;-81
2022/01/18 07:34:23;;;;;;;30.58;8.57;;;;;;;-1.18;100.00;103998.16;5076204;28;20024;-81
2022/01/18 07:36:48;;;;;;;27.52;10.00;;;;;;;-1.13;100.00;103992.97;5076492;28;20488;-80
2022/01/18 07:39:14;;;;;;;32.13;9.90;;;;;;;-1.08;100.00;103999.94;5074604;28;20035;-81
2022/01/18 07:41:39;;;;;;;21.13;8.23;;;;;;;-1.02;100.00;104008.72;5076266;28;20162;-84
2022/01/18 07:44:05;;;;;;;28.00;9.30;;;;;;;-1.00;100.00;103996.53;5076903;28;20128;-80
2022/01/18 07:46:30;;;;;;;31.67;9.88;;;;;;;-0.97;100.00;103993.94;5075490;28;20047;-80
2022/01/18 07:48:56;;;;;;;28.90;9.18;;;;;;;-0.94;100.00;104009.66;5075529;28;20024;-80
2022/01/18 07:51:21;;;;;;;26.98;8.88;;;;;;;-0.92;100.00;104008.81;5074857;28;20029;-79
2022/01/18 07:53:46;;;;;;;26.85;9.07;;;;;;;-0.86;100.00;104004.53;5075417;28;20052;-79
2022/01/18 07:56:12;;;;;;;27.75;8.80;;;;;;;-0.83;100.00;104008.03;5075664;28;20028;-79
2022/01/18 07:58:37;;;;;;;27.15;8.35;;;;;;;-0.75;100.00;104010.69;5075328;28;20024;-80
2022/01/18 08:01:03;;;;;;;33.72;7.95;;;;;;;-0.66;100.00;104013.38;5075506;28;20032;-83
2022/01/18 08:03:29;;;;;;;24.00;8.35;;;;;;;-0.58;100.00;104014.31;5074060;28;20036;-81
2022/01/18 08:05:55;;;;;;;54.17;8.38;;;;;;;-0.46;100.00;104023.09;5075350;28;20040;-81
2022/01/18 08:08:21;;;;;;;105.93;9.73;;;;;;;-0.33;100.00;104017.06;5075084;28;20024;-81
2022/01/18 08:10:47;;;;;;;71.53;8.88;;;;;;;-0.17;100.00;104025.91;5074969;28;20028;-81
2022/01/18 08:13:12;;;;;;;66.25;9.80;;;;;;;-0.07;100.00;104017.25;5075572;28;20353;-81
2022/01/18 08:15:39;;;;;;;80.32;10.20;;;;;;;0.04;100.00;104024.28;5075424;28;20070;-81
2022/01/18 08:18:11;;;;;;;55.22;8.85;;;;;;;0.09;100.00;104019.91;5075307;28;20060;-81
2022/01/18 08:20:37;;;;;;;119.63;10.75;;;;;;;0.19;100.00;104023.47;5075153;28;20063;-79
2022/01/18 08:23:03;;;;;;;78.75;9.63;;;;;;;0.26;100.00;104009.53;5075191;28;20064;-79
2022/01/18 08:25:29;;;;;;;37.60;8.40;;;;;;;0.33;100.00;104012.19;5075522;28;20032;-80
2022/01/18 08:27:55;;;;;;;46.03;7.97;;;;;;;0.42;100.00;104016.56;5075247;28;20045;-80
2022/01/18 08:30:21;;;;;;;34.50;8.55;;;;;;;0.48;100.00;104020.97;5074724;28;20537;-80
2022/01/18 08:32:48;;;;;;;50.25;9.45;;;;;;;0.56;100.00;104019.22;5073990;28;20036;-77
2022/01/18 08:35:14;;;;;;;29.30;7.97;;;;;;;0.65;100.00;104018.38;5074573;28;20037;-78
2022/01/18 08:37:40;;;;;;;55.38;8.88;;;;;;;0.71;100.00;104021.00;5075101;28;20036;-81
2022/01/18 08:40:07;;;;;;;57.50;8.73;;;;;;;0.78;100.00;104025.38;5074535;28;20119;-75
2022/01/18 08:42:32;;;;;;;70.95;9.05;;;;;;;0.83;100.00;104031.50;5074300;28;20431;-80
2022/01/18 08:44:59;;;;;;;52.47;8.68;;;;;;;0.86;100.00;104041.13;5075228;28;20028;-79
2022/01/18 08:47:25;;;;;;;75.88;9.48;;;;;;;0.88;100.00;104042.88;5074633;28;20032;-81
2022/01/18 08:49:51;;;;;;;130.25;10.82;;;;;;;0.91;100.00;104041.13;5075074;28;20032;-81
2022/01/18 08:52:16;;;;;;;152.70;11.20;;;;;;;0.95;100.00;104041.13;5074566;28;20028;-80
2022/01/18 08:54:43;;;;;;;96.57;11.55;;;;;;;1.00;100.00;104041.13;5075438;28;20444;-80
2022/01/18 08:57:12;;;;;;;91.82;12.13;;;;;;;1.03;100.00;104038.50;5074615;28;20032;-80
2022/01/18 08:59:42;;;;;;;64.25;12.02;;;;;;;1.12;100.00;104045.53;5074537;28;20453;-80
2022/01/18 09:02:08;;;;;;;55.75;14.05;;;;;;;1.19;100.00;104040.28;5074488;28;20474;-78
2022/01/18 09:04:35;;;;;;;103.05;17.33;;;;;;;1.23;100.00;104035.91;5074995;28;20037;-80
2022/01/18 09:07:08;;;;;;;53.97;15.95;;;;;;;1.29;100.00;104035.91;5073510;28;20024;-79
2022/01/18 09:09:40;;;;;;;62.05;17.98;;;;;;;1.38;100.00;104037.66;5074466;28;20031;-81
2022/01/18 09:12:08;;;;;;;125.57;20.35;;;;;;;1.42;100.00;104036.78;5074291;28;20033;-79
2022/01/18 09:14:33;;;;;;;89.80;19.73;;;;;;;1.44;100.00;104034.16;5074082;28;20078;-79
2022/01/18 09:16:59;;;;;;;150.07;19.42;;;;;;;1.49;100.00;104046.38;5074214;28;20025;-79
2022/01/18 09:19:24;;;;;;;83.53;17.95;;;;;;;1.52;100.00;104041.16;5073433;28;20152;-79
2022/01/18 09:21:50;;;;;;;103.30;18.83;;;;;;;1.57;100.00;104030.66;5073770;28;20073;-81
2022/01/18 09:24:16;;;;;;;165.30;23.02;;;;;;;1.64;100.00;104040.25;5074327;28;20342;-78
2022/01/18 09:26:42;;;;;;;155.90;20.40;;;;;;;1.69;100.00;104041.13;5073784;28;20054;-80
2022/01/18 09:29:09;;;;;;;171.32;19.38;;;;;;;1.77;100.00;104041.09;5073391;28;20322;-82
2022/01/18 09:31:36;;;;;;;193.95;20.00;;;;;;;1.80;100.00;104037.59;5073667;28;20102;-79
2022/01/18 09:34:02;;;;;;;154.68;17.38;;;;;;;1.82;100.00;104046.34;5073716;28;20111;-77
2022/01/18 09:36:27;;;;;;;155.32;19.45;;;;;;;1.88;100.00;104047.22;5073877;28;20064;-81
2022/01/18 09:38:53;;;;;;;188.70;23.35;;;;;;;1.97;100.00;104048.03;5073557;28;20029;-80
2022/01/18 09:41:20;;;;;;;216.70;20.50;;;;;;;2.03;100.00;104045.41;5073410;28;20032;-80
2022/01/18 09:43:46;;;;;;;186.60;18.65;;;;;;;2.08;100.00;104039.25;5073677;28;20044;-81
2022/01/18 09:46:11;;;;;;;116.68;18.25;;;;;;;2.16;100.00;104051.50;5055800;28;20017;-82
2022/01/18 09:48:37;;;;;;;115.57;16.92;;;;;;;2.25;100.00;104051.44;5072434;28;20031;-80
2022/01/18 09:51:03;;;;;;;104.32;15.30;;;;;;;2.19;100.00;104044.47;5073534;28;20142;-79
2022/01/18 09:53:29;;;;;;;155.25;15.27;;;;;;;2.17;100.00;104040.13;5074071;28;20025;-82
2022/01/18 09:55:54;;;;;;;108.10;15.20;;;;;;;2.21;100.00;104045.34;5073764;28;20032;-80
2022/01/18 09:58:21;;;;;;;150.57;17.25;;;;;;;2.28;100.00;104048.81;5072160;28;20389;-81
2022/01/18 10:00:46;;;;;;;206.13;16.20;;;;;;;2.29;100.00;104054.06;5073781;28;20437;-81
2022/01/18 10:03:33;;;;;;;206.75;15.20;;;;;;;2.37;100.00;104056.66;5073558;28;20059;-81
2022/01/18 10:05:59;;;;;;;195.13;16.10;;;;;;;2.41;100.00;104049.63;5073700;28;20460;-81
2022/01/18 10:08:25;;;;;;;195.70;17.95;;;;;;;2.45;100.00;104051.38;5073936;28;20064;-81
2022/01/18 10:10:56;;;;;;;171.48;15.80;;;;;;;2.49;100.00;104042.56;5073351;28;20094;-79
2022/01/18 10:13:27;;;;;;;246.20;16.95;;;;;;;2.49;100.00;104049.59;5073344;28;20029;-78
2022/01/18 10:16:01;;;;;;;150.32;17.40;;;;;;;2.51;100.00;104051.34;5073413;28;20044;-81
2022/01/18 10:18:47;;;;;;;181.07;18.92;;;;;;;2.56;100.00;104043.44;5073018;28;20024;-80
2022/01/18 10:21:22;;;;;;;230.65;18.10;;;;;;;2.62;100.00;104046.03;5072131;28;20031;-80
2022/01/18 10:23:49;;;;;;;99.43;16.67;;;;;;;2.65;100.00;104041.59;5073299;28;20035;-80
2022/01/18 10:26:20;;;;;;;137.95;16.73;;;;;;;2.76;100.00;104041.56;5073057;28;20047;-78
2022/01/18 10:28:48;;;;;;;178.18;17.83;;;;;;;2.80;100.00;104045.91;5073212;28;20063;-78
2022/01/18 10:31:25;;;;;;;238.35;18.08;;;;;;;2.86;100.00;104044.13;5072919;28;20032;-78
2022/01/18 10:34:10;;;;;;;128.50;16.77;;;;;;;2.93;100.00;104048.47;5073325;28;20487;-79
2022/01/18 10:36:35;;;;;;;150.38;18.25;;;;;;;3.00;100.00;104052.78;5073056;28;20020;-78
2022/01/18 10:39:03;;;;;;;180.70;17.80;;;;;;;3.00;100.00;104047.50;5071833;28;20031;-78
2022/01/18 10:41:34;;;;;;;210.50;17.10;;;;;;;3.00;100.00;104043.16;5072975;28;20039;-77
2022/01/18 10:44:09;;;;;;;260.00;18.35;;;;;;;2.99;100.00;104051.06;5073158;28;20111;-76
2022/01/18 10:46:37;;;;;;;124.40;16.02;;;;;;;2.98;100.00;104047.53;5072920;28;20033;-77
2022/01/18 10:49:03;;;;;;;121.97;17.38;;;;;;;3.05;100.00;104039.63;5073122;28;20020;-77
2022/01/18 10:51:30;;;;;;;268.00;19.67;;;;;;;3.10;100.00;104043.06;5073377;28;20035;-78
2022/01/18 10:54:04;;;;;;;216.45;18.15;;;;;;;3.14;100.00;104042.16;5073529;28;20025;-77
2022/01/18 10:56:47;;;;;;;246.88;18.65;;;;;;;3.27;100.00;104049.06;5074134;28;20024;-78
2022/01/18 10:59:23;;;;;;;119.53;17.42;;;;;;;3.28;100.00;104049.94;5076424;28;20452;-78
2022/01/18 11:02:09;;;;;;;195.82;17.80;;;;;;;3.28;100.00;104045.53;5077004;28;20063;-77
2022/01/18 11:04:35;;;;;;;315.42;20.02;;;;;;;3.22;100.00;104039.47;5077119;28;20051;-78
2022/01/18 11:07:04;;;;;;;296.85;20.05;;;;;;;3.26;100.00;104035.94;5076664;28;20052;-78
2022/01/18 11:09:30;;;;;;;322.95;20.83;;;;;;;3.21;100.00;104032.44;5076331;28;20097;-78
2022/01/18 11:11:56;;;;;;;270.52;20.70;;;;;;;3.24;100.00;104032.41;5077046;28;20352;-80
2022/01/18 11:14:23;;;;;;;281.30;20.98;;;;;;;3.14;100.00;104029.00;5076583;28;20025;-78
2022/01/18 11:16:50;;;;;;;160.98;20.40;;;;;;;3.22;100.00;104026.31;5076181;28;20488;-81
2022/01/18 11:21:51;;;;;;;130.00;20.67;;;;;;;3.20;100.00;104028.09;5076798;28;20451;-78
2022/01/18 11:24:18;;;;;;;177.07;21.50;;;;;;;3.23;100.00;104028.06;5075884;28;20518;-79
2022/01/18 11:26:45;;;;;;;72.78;21.02;;;;;;;3.37;100.00;104025.31;5075039;28;20020;-80
2022/01/18 11:29:12;;;;;;;124.47;22.67;;;;;;;3.45;100.00;104023.44;5076367;28;20024;-79
2022/01/18 11:31:40;;;;;;;142.65;23.20;;;;;;;3.48;100.00;104020.81;5076220;28;20029;-78
2022/01/18 11:34:09;;;;;;;264.98;25.77;;;;;;;3.57;100.00;104028.63;5076115;28;20113;-77
2022/01/18 11:36:44;;;;;;;212.57;21.63;;;;;;;3.56;100.00;104024.22;5076608;28;20024;-78
2022/01/18 11:39:11;;;;;;;174.80;22.77;;;;;;;3.55;100.00;104016.34;5076116;28;20056;-78
2022/01/18 11:41:37;;;;;;;208.88;22.63;;;;;;;3.56;100.00;104023.38;5075816;28;20375;-78
2022/01/18 11:44:19;;;;;;;124.93;24.00;;;;;;;3.51;100.00;104016.38;5076423;28;20048;-76
2022/01/18 11:46:52;;;;;;;112.85;24.55;;;;;;;3.64;100.00;104014.50;5076567;28;20024;-78
2022/01/18 11:49:21;;;;;;;122.82;26.20;;;;;;;3.62;100.00;104013.63;5075790;28;20063;-76
2022/01/18 11:51:51;;;;;;;80.47;18.70;;;;;;;3.73;100.00;104008.25;5076029;28;20101;-77
2022/01/18 11:57:23;;;;;;;47.47;14.55;;;;;;;3.70;100.00;104010.91;5076006;28;20028;-77
2022/01/18 11:59:52;;;;;;;66.70;15.88;;;;;;;3.60;100.00;104010.16;5076897;28;20024;-77
2022/01/18 12:02:39;;;;;;;86.60;15.80;;;;;;;3.60;100.00;104004.88;5076412;28;20027;-79
2022/01/18 12:05:14;;;;;;;88.18;12.60;;;;;;;3.57;100.00;104010.19;5074770;28;20502;-77
2022/01/18 12:07:41;;;;;;;87.25;12.30;;;;;;;3.61;100.00;104001.34;5075765;28;20055;-76
2022/01/18 12:10:32;;;;;;;60.72;13.43;;;;;;;3.66;100.00;103998.69;5075379;28;20040;-78
2022/01/18 12:13:04;;;;;;;50.47;11.82;;;;;;;3.83;100.00;103991.44;5075782;28;20456;-77
2022/01/18 12:15:32;;;;;;;36.97;11.35;;;;;;;3.85;100.00;103997.59;5074959;28;20368;-78
2022/01/18 12:18:01;;;;;;;48.80;10.20;;;;;;;3.75;100.00;103988.06;5075136;28;20024;-78
2022/01/18 12:20:35;;;;;;;41.90;11.73;;;;;;;3.78;100.00;103984.50;5076098;28;20029;-77
2022/01/18 12:23:07;;;;;;;60.40;12.57;;;;;;;3.88;100.00;103983.47;5076331;28;20032;-78
2022/01/18 12:25:36;;;;;;;56.60;12.77;;;;;;;3.88;100.00;103981.75;5075811;28;20024;-76
2022/01/18 12:28:36;;;;;;;38.47;11.02;;;;;;;4.00;100.00;103983.34;5075082;28;20025;-78
2022/01/18 12:31:17;;;;;;;53.45;12.18;;;;;;;3.98;100.00;103979.84;5075204;28;20085;-79